Facundo Pérez

Recruteur - Estudiantes
20 Nov 2027
Samedi
Processus

Personnalité

Adaptabilité (17) Ambition (20) Controverse (2) Loyauté (9) Pression (14) Professionnalisme (10) Sportivité (17) Tempérament (18)

Profil

Style d'entraînement Démocratique
Diplôme Continental B
Détermination 11
Gestion des joueurs 15
Motivation 12
Discipline 8
Satisfaction professionnelle
100%
Fatigue
0%
Rôle Recruteur
Salaire 85.3K p/s
Contrat 14.03.2029

Performance

Comportement Bon
Efficacité de l'entraînement
58%
Développement des joueurs
45%
Prévention des blessures
65%
Mise en place tactique
50%

Événements récents

A participé à une réunion de recrutement maintenant
A participé à une réunion de recrutement 7j
A participé à une réunion de recrutement 7j
A participé à une réunion de recrutement 7j
A participé à une réunion de recrutement 14j
A participé à une réunion de recrutement 14j
A participé à une réunion de recrutement 14j
A participé à une réunion de recrutement 21j

Suivi en cours

99
Joueur Club Statut Capacité Confiance Observé Dernière observation Dernier vote
Patricio Tanda Racing Club Actif 105 / 100 51% 1 05.07.2027 -
Joel McGregor Swindon Town Actif 103 / 109 40% 1 21.06.2027 -
Riley Owen Wycombe Wanderers Négociation 121 / 99 40% 1 21.06.2027 -
Matías Gómez Valencia Actif 132 / 118 40% 1 14.06.2027 -
Tiago Freitas Benfica Actif 110 / 102 40% 1 14.06.2027 -
Rodrigo Guth Talleres Actif 118 / 126 51% 1 01.06.2027 -
Solly March Brighton Actif 170 / 149 40% 3 31.05.2027 -
Rumarn Burrell Queens Park Rangers Actif 113 / 129 40% 2 29.05.2027 -
Ignacio Aliseda Cerro Porteno Actif 134 / 129 40% 1 29.05.2027 -
Matías Soulé AS Roma Actif 155 / 169 40% 3 27.05.2027 -
Ronald Swansea City Actif 142 / 138 40% 2 25.05.2027 -
Julio Enciso Ipswich Town Actif 154 / 138 40% 5 24.05.2027 -
Chemsdine Talbi Sunderland Actif 135 / 156 40% 5 23.05.2027 Observer
Yankuba Minteh Brighton Actif 161 / 169 40% 2 23.05.2027 -
Demarai Gray Birmingham Actif 141 / 144 40% 2 21.05.2027 -
Brennan Johnson Everton Actif 165 / 159 40% 6 19.05.2027 -
Léo Scienza Southampton Actif 154 / 145 40% 1 16.05.2027 -
Ismaïla Sarr Crystal Palace Actif 155 / 140 40% 1 15.05.2027 -
Kevin Schade Brentford Actif 168 / 164 40% 7 14.05.2027 -
Koki Saito Queens Park Rangers Actif 114 / 127 40% 4 14.05.2027 -
Zeidane Inoussa Swansea City Actif 121 / 124 40% 1 14.05.2027 -
John McGinn Aston Villa Actif 138 / 139 40% 2 11.05.2027 -
Mathias Jørgensen Blackburn Rovers Actif 135 / 103 40% 1 09.05.2027 -
Relebohile Mofokeng Orlando Pirates Actif 105 / 128 40% 2 06.05.2027 -
Mikkel Damsgaard Brentford Actif 149 / 158 40% 3 05.05.2027 -
Sorba Thomas Stoke City Actif 149 / 118 40% 1 05.05.2027 -
Charles De Ketelaere Atalanta Actif 141 / 165 40% 1 04.05.2027 -
Todd Cantwell Blackburn Rovers Actif 129 / 143 40% 1 03.05.2027 -
Kevin Fulham Actif 140 / 143 40% 5 29.04.2027 -
Dango Ouattara Brentford Actif 158 / 142 40% 3 28.04.2027 -
Pablo Solari Spartak Moscow Actif 115 / 138 40% 3 26.04.2027 -
Matt O'Riley Brighton Actif 163 / 142 40% 6 23.04.2027 -
Liam Delap Nottingham Forest Actif 158 / 141 40% 3 22.04.2027 -
Finn Azaz Southampton Actif 137 / 111 40% 1 17.04.2027 -
Ramón Terrats Getafe Actif 132 / 136 40% 5 11.04.2027 -
Jack McGlynn Stoke City Actif 115 / 134 40% 1 08.04.2027 -
Carlos Alcaraz Everton Actif 141 / 155 40% 2 05.04.2027 -
Nicolas Jackson Aston Villa Actif 161 / 156 40% 2 28.03.2027 -
Santiago Pierotti Lecce Actif 117 / 130 40% 2 28.03.2027 -
Kiernan Dewsbury-Hall Everton Actif 166 / 135 40% 2 22.03.2027 -
Carlos Vicente Udinese Actif 158 / 141 40% 1 21.03.2027 -
Esequiel Barco Spartak Moscow Actif 120 / 143 40% 2 17.03.2027 -
Petar Stanić Ludogorets Actif 118 / 143 40% 1 01.02.2027 -
Luca Langoni New England Revolution Actif 142 / 131 40% 2 21.12.2026 -
Hidemasa Morita Hull City Actif 147 / 152 40% 1 30.11.2026 -
Nicolás Domínguez Nottingham Forest Actif 146 / 155 40% 3 27.11.2026 -
Musab Al-Juwayr Al-Qadisiyah Actif 131 / 146 40% 1 27.11.2026 -
Kenny Tete Fulham Actif 157 / 129 40% 2 26.11.2026 -
Mathías Olivera Cesena Actif 148 / 143 40% 1 26.11.2026 -
Youssef En-Nesyri Al-Ittihad Actif 153 / 156 40% 5 23.11.2026 -
Jacob Greaves Ipswich Town Actif 150 / 150 40% 2 22.11.2026 -
Tommy Conway Middlesbrough Actif 140 / 133 40% 1 21.11.2026 -
Soungoutou Magassa West Ham United Actif 128 / 116 40% 2 18.11.2026 -
Yoane Wissa Newcastle United Actif 145 / 146 40% 1 17.11.2026 Plus d'infos
Álvaro Carreras Real Madrid Actif 148 / 150 40% 1 14.11.2026 -
Aníbal Moreno River Plate Actif 124 / 125 40% 1 12.11.2026 -
Daniel Muñoz Nottingham Forest Actif 134 / 153 40% 1 12.11.2026 -
Sergej Milinković-Savić Al-Hilal Actif 164 / 152 40% 1 11.11.2026 -
Joachim Andersen Fulham Actif 156 / 133 40% 1 10.11.2026 -
Dwight McNeil Crystal Palace Actif 134 / 152 40% 2 07.11.2026 -
Ricardo Pepi Napoli Actif 162 / 147 40% 3 04.11.2026 -
Tasos Douvikas Como Actif 135 / 143 40% 1 04.11.2026 -
Florentino Luís Ipswich Town Actif 136 / 134 40% 1 04.11.2026 -
Szabolcs Szoboszlai Haladas Actif 125 / 150 40% 1 04.11.2026 -
Tariq Lamptey Queens Park Rangers Actif 131 / 142 40% 1 03.11.2026 -
Marc Pubill Atlético Madrid Actif 151 / 152 40% 2 30.10.2026 -
Federico Girotti Alianza Lima Actif 119 / 123 40% 1 27.10.2026 -
Camilo Durán Bloemfontein Celtic Actif 125 / 131 40% 2 24.10.2026 -
Luca Martínez Dupuy Godoy Cruz Actif 107 / 128 40% 2 24.10.2026 -
Lucas Torreira Galatasaray Actif 169 / 165 40% 2 23.10.2026 -
Mauro Arambarri River Plate Actif 162 / 149 40% 1 20.10.2026 -
Alan Velasco Boca Juniors Actif 137 / 140 40% 1 19.10.2026 -
Tomás Chancalay Minnesota United FC Actif 117 / 111 40% 2 16.10.2026 -
Leandro Godoy CSKA Sofia Actif 129 / 125 40% 1 16.10.2026 -
Taty Castellanos West Ham United Actif 138 / 148 40% 1 15.10.2026 -
Ayrton Costa Boca Juniors Actif 131 / 117 40% 2 14.10.2026 -
Tyrell Malacia Derby County Actif 118 / 138 40% 1 13.10.2026 -
Alejo Cruz Juventud Actif 125 / 123 40% 1 11.10.2026 -
Marcos Senesi Tottenham Actif 164 / 146 40% 1 11.10.2026 -
Nacho Vidal Lechia Actif 120 / 134 40% 1 11.10.2026 -
Eddie Nketiah Crystal Palace Actif 146 / 149 40% 2 10.10.2026 -
Emanuel Mammana Vélez Actif 130 / 120 40% 1 09.10.2026 -
Tadeo Allende Inter Miami CF Actif 121 / 120 40% 1 24.09.2026 -
Dejan Joveljić Seattle Sounders Actif 146 / 135 40% 1 24.09.2026 -
Duk Atlas Actif 124 / 120 40% 1 22.09.2026 -
Kerem Aktürkoğlu Fenerbahce Actif 157 / 146 40% 2 21.09.2026 -
Steven Bergwijn Al-Ittihad Actif 138 / 142 40% 4 18.09.2026 -
Yves Bissouma Tottenham Actif 122 / 134 40% 1 15.09.2026 -
Troy Parrott Betis Actif 141 / 153 40% 1 15.09.2026 -
Alexey Batrakov Galatasaray Actif 126 / 133 40% 3 12.09.2026 -
David Douděra FC Cincinnati Actif 140 / 123 40% 1 12.09.2026 -
Christian Krasnodar Actif 151 / 150 40% 1 09.09.2026 -
Alexander Díaz Deportivo Riestra Actif 130 / 112 40% 1 08.09.2026 -
Ollie Watkins Al-Hilal Actif 136 / 166 40% 3 01.09.2026 -
Leandro Trossard Besiktas Actif 153 / 158 40% 3 23.08.2026 -
Dodi Lukébakio Benfica Actif 146 / 162 40% 1 14.08.2026 -
Kasper Dolberg Ajax Actif 128 / 147 40% 1 13.08.2026 -
Jesús Angulo Tigres Actif 118 / 120 40% 1 07.08.2026 -
Ivan Toney Al-Ahli Actif 143 / 140 40% 1 05.08.2026 -